Friday, July 25, 2014
19:54 UTC
  |  Log In   |  Register Free
Airport Search:

Firelands Community Hospital Nr 2 Airport
(OI87)

Firelands Community Hospital Nr 2 Airport Diagram
No Airport Diagram Available

FAA data valid effective July 24, 2014 until September 18, 2014 (unless otherwise noted).

 
 
 
 
 
 
 
 
 
 
 
 
 
 

Current Aviation Weather for Firelands Community Hospital Nr 2 Airport (OI87)

The most recent METAR observation for KLPR was updated at: 1753 UTC
METAR Summary (Translated METAR)
KLPR
251753Z AUTO VRB05KT 10SM SCT050 25/11 A3007 RMK AO2 SLP181 T02500106 10250 20156 56013 TSNO
KCLE
(15.3 nm NE from KLPR)
251751Z VRB05KT 10SM SCT055 SCT250 24/11 A3009 RMK AO2 SLP185 T02440111 10244 20144 56012
TAF Summary (Translated TAF)
KCLE
(15.3 nm NE from KLPR)
251727Z 2518/2624 30004KT P6SM SCT050 BKN250 FM261200 18010KT P6SM OVC060 FM262100 23010KT P6SM VCSH BKN050 OVC100
  Airport Weather Conditions for OI87

Current weather conditions are
not available for OI87


The nearest NOAA weather station
is at LPR, (24.8 nm SE from OI87)
  
 Current Weather at LPR
78° F
Fair
Variable winds at 3.5 mph
LPR NOAA Radar

Pressure: 30.05 in
Humidity: 36%
Wind: Variable at 3.5 MPH (3 KT)
Dew Point: 48.9°F
Visibility: 10.00 mi


Airport Weather Forecast for OI87

Translated METAR and TAF for KLPR
Translated METAR for KLPR (1947 UTC 25 July 2014)
found at http://aviationweather.gov/adds/metars/
 
METAR text: KLPR 251853Z AUTO VRB03KT 10SM CLR 26/09 A3005 RMK AO2 SLP173 T02560094 TSNO
Conditions at: KLPR (LORAIN/ELYRIA , OH, US) observed 1853 UTC 25 July 2014
Temperature: 25.6°C (78°F)
Dewpoint: 9.4°C (49°F) [RH = 36%]
Pressure (altimeter): 30.05 inches Hg (1017.7 mb)
[Sea-level pressure: 1017.3 mb]
Winds: variable direction winds at 3 MPH (3 knots; 1.6 m/s)
Visibility: 10 or more miles (16+ km)
Ceiling: at least 12,000 feet AGL
Clouds: sky clear below 12,000 feet AGL
Weather: automated observation with no human augmentation;
there may or may not be significant weather present at this time
Translated TAF for KLPR

There is no translated TAF available for this airport

Find All Airport Services Find A Hotel Find A Rental Car Find A Golf Course Find A Restaurant $100 Hamburger



FBO's on the Field
FBO Company Facility Photos Services Transportation Aviation Fuel Prices: Prices include tax
Catering Weather Repair Courtesy Rental Type 100LL JetA JetA+ MOGAS 8087
 
Add another FBO Facility Photos Catering Weather Repair Courtesy Rental Type 100LL JetA JetA+ MOGAS 8087
Services Transportation Aviation Fuel Prices: Prices include tax
There are no FBO's currently reporting fuel at OI87. List your FBO now


GlobalAir.com Airport Resource Center model-print
model-print
model-print
model-print